sensor_id;sensor_type;location;lat;lon;timestamp;P1;durP1;ratioP1;P2;durP2;ratioP2
11121;SDS011;5615;49.304;10.576;2022-09-09T00:00:47;8.73;;;4.40;;
11121;SDS011;5615;49.304;10.576;2022-09-09T00:03:22;5.87;;;4.37;;
11121;SDS011;5615;49.304;10.576;2022-09-09T00:05:54;6.30;;;4.17;;
11121;SDS011;5615;49.304;10.576;2022-09-09T00:08:29;6.70;;;4.27;;
11121;SDS011;5615;49.304;10.576;2022-09-09T00:11:05;6.37;;;4.63;;
11121;SDS011;5615;49.304;10.576;2022-09-09T00:13:37;6.43;;;4.77;;
11121;SDS011;5615;49.304;10.576;2022-09-09T00:16:10;7.47;;;4.43;;
11121;SDS011;5615;49.304;10.576;2022-09-09T00:18:46;6.83;;;4.47;;
11121;SDS011;5615;49.304;10.576;2022-09-09T00:21:24;5.60;;;4.10;;
11121;SDS011;5615;49.304;10.576;2022-09-09T00:23:57;8.10;;;4.47;;
11121;SDS011;5615;49.304;10.576;2022-09-09T00:26:27;6.73;;;4.30;;
11121;SDS011;5615;49.304;10.576;2022-09-09T00:29:03;7.67;;;4.40;;
11121;SDS011;5615;49.304;10.576;2022-09-09T00:31:44;7.37;;;4.67;;
11121;SDS011;5615;49.304;10.576;2022-09-09T00:34:13;8.13;;;4.57;;
11121;SDS011;5615;49.304;10.576;2022-09-09T00:36:42;7.37;;;3.90;;
11121;SDS011;5615;49.304;10.576;2022-09-09T00:39:09;7.00;;;4.83;;
11121;SDS011;5615;49.304;10.576;2022-09-09T00:41:56;6.40;;;4.17;;
11121;SDS011;5615;49.304;10.576;2022-09-09T00:44:36;6.87;;;4.23;;
11121;SDS011;5615;49.304;10.576;2022-09-09T00:47:07;5.93;;;4.47;;
11121;SDS011;5615;49.304;10.576;2022-09-09T00:49:47;7.60;;;4.87;;
11121;SDS011;5615;49.304;10.576;2022-09-09T00:52:27;7.57;;;5.23;;
11121;SDS011;5615;49.304;10.576;2022-09-09T00:55:03;5.97;;;4.87;;
11121;SDS011;5615;49.304;10.576;2022-09-09T00:57:38;6.57;;;4.67;;
11121;SDS011;5615;49.304;10.576;2022-09-09T01:00:16;8.30;;;4.70;;
11121;SDS011;5615;49.304;10.576;2022-09-09T01:02:49;7.03;;;4.77;;
11121;SDS011;5615;49.304;10.576;2022-09-09T01:05:37;7.97;;;4.97;;
11121;SDS011;5615;49.304;10.576;2022-09-09T01:08:13;6.63;;;4.70;;
11121;SDS011;5615;49.304;10.576;2022-09-09T01:10:55;7.07;;;4.73;;
11121;SDS011;5615;49.304;10.576;2022-09-09T01:13:25;6.53;;;4.80;;
11121;SDS011;5615;49.304;10.576;2022-09-09T01:15:55;8.53;;;4.90;;
11121;SDS011;5615;49.304;10.576;2022-09-09T01:18:26;5.20;;;4.70;;
11121;SDS011;5615;49.304;10.576;2022-09-09T01:20:58;6.87;;;4.50;;
11121;SDS011;5615;49.304;10.576;2022-09-09T01:23:38;7.13;;;4.77;;
11121;SDS011;5615;49.304;10.576;2022-09-09T01:26:26;6.20;;;5.03;;
11121;SDS011;5615;49.304;10.576;2022-09-09T01:28:54;6.40;;;4.47;;
11121;SDS011;5615;49.304;10.576;2022-09-09T01:31:21;6.80;;;4.03;;
11121;SDS011;5615;49.304;10.576;2022-09-09T01:33:52;7.67;;;4.57;;
11121;SDS011;5615;49.304;10.576;2022-09-09T01:36:21;7.63;;;4.87;;
11121;SDS011;5615;49.304;10.576;2022-09-09T01:38:52;7.60;;;5.43;;
11121;SDS011;5615;49.304;10.576;2022-09-09T01:41:19;11.03;;;6.20;;
11121;SDS011;5615;49.304;10.576;2022-09-09T01:43:47;7.00;;;4.70;;
11121;SDS011;5615;49.304;10.576;2022-09-09T01:46:16;6.10;;;4.43;;
11121;SDS011;5615;49.304;10.576;2022-09-09T01:48:47;7.80;;;4.60;;
11121;SDS011;5615;49.304;10.576;2022-09-09T01:51:14;6.63;;;4.33;;
11121;SDS011;5615;49.304;10.576;2022-09-09T01:53:40;5.47;;;4.47;;
11121;SDS011;5615;49.304;10.576;2022-09-09T01:56:11;8.23;;;4.90;;
11121;SDS011;5615;49.304;10.576;2022-09-09T01:58:52;8.10;;;5.20;;
11121;SDS011;5615;49.304;10.576;2022-09-09T02:01:36;10.27;;;6.10;;
11121;SDS011;5615;49.304;10.576;2022-09-09T02:04:14;10.87;;;6.43;;
11121;SDS011;5615;49.304;10.576;2022-09-09T02:06:48;10.60;;;6.50;;
11121;SDS011;5615;49.304;10.576;2022-09-09T02:09:18;9.53;;;6.23;;
11121;SDS011;5615;49.304;10.576;2022-09-09T02:11:48;17.93;;;10.33;;
11121;SDS011;5615;49.304;10.576;2022-09-09T02:14:22;17.27;;;10.57;;
11121;SDS011;5615;49.304;10.576;2022-09-09T02:16:52;11.23;;;7.30;;
11121;SDS011;5615;49.304;10.576;2022-09-09T02:19:24;12.87;;;7.67;;
11121;SDS011;5615;49.304;10.576;2022-09-09T02:21:54;12.63;;;7.20;;
11121;SDS011;5615;49.304;10.576;2022-09-09T02:24:23;9.33;;;5.60;;
11121;SDS011;5615;49.304;10.576;2022-09-09T02:26:52;7.00;;;5.10;;
11121;SDS011;5615;49.304;10.576;2022-09-09T02:29:24;9.47;;;5.33;;
11121;SDS011;5615;49.304;10.576;2022-09-09T02:31:53;7.60;;;5.10;;
11121;SDS011;5615;49.304;10.576;2022-09-09T02:34:24;7.23;;;5.27;;
11121;SDS011;5615;49.304;10.576;2022-09-09T02:36:53;6.13;;;4.50;;
11121;SDS011;5615;49.304;10.576;2022-09-09T02:39:21;9.13;;;5.20;;
11121;SDS011;5615;49.304;10.576;2022-09-09T02:41:47;7.13;;;4.67;;
11121;SDS011;5615;49.304;10.576;2022-09-09T02:44:15;7.93;;;4.10;;
11121;SDS011;5615;49.304;10.576;2022-09-09T02:46:48;6.00;;;3.93;;
11121;SDS011;5615;49.304;10.576;2022-09-09T02:49:28;6.53;;;3.70;;
11121;SDS011;5615;49.304;10.576;2022-09-09T02:52:06;6.13;;;3.57;;
11121;SDS011;5615;49.304;10.576;2022-09-09T02:54:34;4.23;;;3.50;;
11121;SDS011;5615;49.304;10.576;2022-09-09T02:57:05;8.23;;;3.73;;
11121;SDS011;5615;49.304;10.576;2022-09-09T02:59:36;3.70;;;3.20;;
11121;SDS011;5615;49.304;10.576;2022-09-09T03:02:04;8.57;;;3.60;;
11121;SDS011;5615;49.304;10.576;2022-09-09T03:04:31;7.17;;;3.70;;
11121;SDS011;5615;49.304;10.576;2022-09-09T03:06:58;6.80;;;3.40;;
11121;SDS011;5615;49.304;10.576;2022-09-09T03:09:25;3.77;;;3.37;;
11121;SDS011;5615;49.304;10.576;2022-09-09T03:11:52;3.73;;;3.20;;
11121;SDS011;5615;49.304;10.576;2022-09-09T03:14:20;4.60;;;3.03;;
11121;SDS011;5615;49.304;10.576;2022-09-09T03:16:49;4.80;;;3.27;;
11121;SDS011;5615;49.304;10.576;2022-09-09T03:19:17;5.27;;;3.70;;
11121;SDS011;5615;49.304;10.576;2022-09-09T03:21:44;6.97;;;3.77;;
11121;SDS011;5615;49.304;10.576;2022-09-09T03:24:11;5.37;;;3.70;;
11121;SDS011;5615;49.304;10.576;2022-09-09T03:26:39;5.90;;;4.10;;
11121;SDS011;5615;49.304;10.576;2022-09-09T03:29:06;8.43;;;3.73;;
11121;SDS011;5615;49.304;10.576;2022-09-09T03:31:33;4.00;;;3.60;;
11121;SDS011;5615;49.304;10.576;2022-09-09T03:34:00;6.77;;;3.83;;
11121;SDS011;5615;49.304;10.576;2022-09-09T03:36:29;7.20;;;4.60;;
11121;SDS011;5615;49.304;10.576;2022-09-09T03:38:56;4.43;;;3.90;;
11121;SDS011;5615;49.304;10.576;2022-09-09T03:41:23;5.53;;;4.20;;
11121;SDS011;5615;49.304;10.576;2022-09-09T03:43:51;9.33;;;4.33;;
11121;SDS011;5615;49.304;10.576;2022-09-09T03:46:18;9.90;;;4.47;;
11121;SDS011;5615;49.304;10.576;2022-09-09T03:48:45;7.37;;;3.90;;
11121;SDS011;5615;49.304;10.576;2022-09-09T03:51:12;6.43;;;3.90;;
11121;SDS011;5615;49.304;10.576;2022-09-09T03:53:40;6.90;;;4.43;;
11121;SDS011;5615;49.304;10.576;2022-09-09T03:56:08;9.57;;;4.40;;
11121;SDS011;5615;49.304;10.576;2022-09-09T03:58:35;6.53;;;4.10;;
11121;SDS011;5615;49.304;10.576;2022-09-09T04:01:03;6.27;;;3.93;;
11121;SDS011;5615;49.304;10.576;2022-09-09T04:03:33;5.63;;;4.70;;
11121;SDS011;5615;49.304;10.576;2022-09-09T04:06:02;8.73;;;4.00;;
11121;SDS011;5615;49.304;10.576;2022-09-09T04:08:31;8.87;;;4.47;;
11121;SDS011;5615;49.304;10.576;2022-09-09T04:10:59;7.63;;;5.13;;
11121;SDS011;5615;49.304;10.576;2022-09-09T04:13:26;6.50;;;5.10;;
11121;SDS011;5615;49.304;10.576;2022-09-09T04:15:54;7.50;;;5.07;;
11121;SDS011;5615;49.304;10.576;2022-09-09T04:18:22;8.30;;;4.57;;
11121;SDS011;5615;49.304;10.576;2022-09-09T04:20:49;9.27;;;5.23;;
11121;SDS011;5615;49.304;10.576;2022-09-09T04:23:17;10.23;;;4.80;;
11121;SDS011;5615;49.304;10.576;2022-09-09T04:25:45;9.30;;;4.80;;
11121;SDS011;5615;49.304;10.576;2022-09-09T04:28:14;9.93;;;5.13;;
11121;SDS011;5615;49.304;10.576;2022-09-09T04:30:41;9.40;;;4.77;;
11121;SDS011;5615;49.304;10.576;2022-09-09T04:33:08;6.87;;;4.50;;
11121;SDS011;5615;49.304;10.576;2022-09-09T04:35:35;7.30;;;5.10;;
11121;SDS011;5615;49.304;10.576;2022-09-09T04:38:03;7.50;;;4.77;;
11121;SDS011;5615;49.304;10.576;2022-09-09T04:40:32;6.00;;;4.20;;
11121;SDS011;5615;49.304;10.576;2022-09-09T04:42:59;6.63;;;4.60;;
11121;SDS011;5615;49.304;10.576;2022-09-09T04:45:27;5.37;;;4.63;;
11121;SDS011;5615;49.304;10.576;2022-09-09T04:47:54;6.57;;;4.70;;
11121;SDS011;5615;49.304;10.576;2022-09-09T04:50:20;5.83;;;4.23;;
11121;SDS011;5615;49.304;10.576;2022-09-09T04:52:47;9.97;;;4.87;;
11121;SDS011;5615;49.304;10.576;2022-09-09T04:55:14;5.60;;;4.17;;
11121;SDS011;5615;49.304;10.576;2022-09-09T04:57:41;9.27;;;4.53;;
11121;SDS011;5615;49.304;10.576;2022-09-09T05:00:08;6.37;;;4.70;;
11121;SDS011;5615;49.304;10.576;2022-09-09T05:02:38;8.47;;;5.00;;
11121;SDS011;5615;49.304;10.576;2022-09-09T05:05:05;7.67;;;4.80;;
11121;SDS011;5615;49.304;10.576;2022-09-09T05:07:33;6.10;;;4.40;;
11121;SDS011;5615;49.304;10.576;2022-09-09T05:10:00;5.07;;;4.13;;
11121;SDS011;5615;49.304;10.576;2022-09-09T05:12:30;7.37;;;4.23;;
11121;SDS011;5615;49.304;10.576;2022-09-09T05:14:57;7.53;;;4.87;;
11121;SDS011;5615;49.304;10.576;2022-09-09T05:17:24;7.60;;;4.30;;
11121;SDS011;5615;49.304;10.576;2022-09-09T05:19:52;4.60;;;3.80;;
11121;SDS011;5615;49.304;10.576;2022-09-09T05:22:19;6.30;;;3.77;;
11121;SDS011;5615;49.304;10.576;2022-09-09T05:24:46;5.43;;;3.10;;
11121;SDS011;5615;49.304;10.576;2022-09-09T05:27:15;7.67;;;4.57;;
11121;SDS011;5615;49.304;10.576;2022-09-09T05:29:43;10.17;;;6.97;;
11121;SDS011;5615;49.304;10.576;2022-09-09T05:32:09;8.87;;;6.37;;
11121;SDS011;5615;49.304;10.576;2022-09-09T05:34:36;10.83;;;5.63;;
11121;SDS011;5615;49.304;10.576;2022-09-09T05:37:05;7.07;;;4.87;;
11121;SDS011;5615;49.304;10.576;2022-09-09T05:39:32;11.07;;;4.93;;
11121;SDS011;5615;49.304;10.576;2022-09-09T05:42:01;7.07;;;4.63;;
11121;SDS011;5615;49.304;10.576;2022-09-09T05:44:27;7.97;;;5.00;;
11121;SDS011;5615;49.304;10.576;2022-09-09T05:46:54;7.80;;;5.03;;
11121;SDS011;5615;49.304;10.576;2022-09-09T05:49:21;5.87;;;4.80;;
11121;SDS011;5615;49.304;10.576;2022-09-09T05:51:47;9.20;;;5.13;;
11121;SDS011;5615;49.304;10.576;2022-09-09T05:54:16;7.00;;;5.10;;
11121;SDS011;5615;49.304;10.576;2022-09-09T05:56:43;7.07;;;5.43;;
11121;SDS011;5615;49.304;10.576;2022-09-09T05:59:10;11.57;;;6.67;;
11121;SDS011;5615;49.304;10.576;2022-09-09T06:01:37;9.03;;;5.60;;
11121;SDS011;5615;49.304;10.576;2022-09-09T06:04:05;8.13;;;4.80;;
11121;SDS011;5615;49.304;10.576;2022-09-09T06:06:32;6.97;;;4.97;;
11121;SDS011;5615;49.304;10.576;2022-09-09T06:09:02;7.90;;;5.23;;
11121;SDS011;5615;49.304;10.576;2022-09-09T06:11:33;8.50;;;3.87;;
11121;SDS011;5615;49.304;10.576;2022-09-09T06:14:01;7.30;;;3.90;;
11121;SDS011;5615;49.304;10.576;2022-09-09T06:16:29;7.33;;;4.37;;
11121;SDS011;5615;49.304;10.576;2022-09-09T06:18:57;5.13;;;3.90;;
11121;SDS011;5615;49.304;10.576;2022-09-09T06:21:25;7.47;;;4.30;;
11121;SDS011;5615;49.304;10.576;2022-09-09T06:23:54;8.50;;;2.87;;
11121;SDS011;5615;49.304;10.576;2022-09-09T06:26:21;6.57;;;3.03;;
11121;SDS011;5615;49.304;10.576;2022-09-09T06:28:52;5.97;;;3.20;;
11121;SDS011;5615;49.304;10.576;2022-09-09T06:31:20;6.83;;;3.07;;
11121;SDS011;5615;49.304;10.576;2022-09-09T06:33:48;5.30;;;2.93;;
11121;SDS011;5615;49.304;10.576;2022-09-09T06:36:16;6.40;;;3.07;;
11121;SDS011;5615;49.304;10.576;2022-09-09T06:38:45;4.37;;;3.00;;
11121;SDS011;5615;49.304;10.576;2022-09-09T06:41:12;5.20;;;3.17;;
11121;SDS011;5615;49.304;10.576;2022-09-09T06:43:40;7.63;;;2.90;;
11121;SDS011;5615;49.304;10.576;2022-09-09T06:46:10;6.80;;;3.53;;
11121;SDS011;5615;49.304;10.576;2022-09-09T06:48:38;5.27;;;2.70;;
11121;SDS011;5615;49.304;10.576;2022-09-09T06:51:07;5.63;;;3.17;;
11121;SDS011;5615;49.304;10.576;2022-09-09T06:53:36;3.23;;;2.63;;
11121;SDS011;5615;49.304;10.576;2022-09-09T06:56:17;8.23;;;3.13;;
11121;SDS011;5615;49.304;10.576;2022-09-09T06:58:46;4.77;;;2.63;;
11121;SDS011;5615;49.304;10.576;2022-09-09T07:01:15;8.80;;;3.27;;
11121;SDS011;5615;49.304;10.576;2022-09-09T07:03:45;6.90;;;3.00;;
11121;SDS011;5615;49.304;10.576;2022-09-09T07:06:13;13.47;;;2.83;;
11121;SDS011;5615;49.304;10.576;2022-09-09T07:08:42;6.33;;;2.97;;
11121;SDS011;5615;49.304;10.576;2022-09-09T07:11:09;3.97;;;2.33;;
11121;SDS011;5615;49.304;10.576;2022-09-09T07:13:36;4.87;;;2.47;;
11121;SDS011;5615;49.304;10.576;2022-09-09T07:16:03;5.63;;;2.40;;
11121;SDS011;5615;49.304;10.576;2022-09-09T07:18:31;3.00;;;2.03;;
11121;SDS011;5615;49.304;10.576;2022-09-09T07:20:59;4.27;;;1.83;;
11121;SDS011;5615;49.304;10.576;2022-09-09T07:23:27;4.60;;;2.23;;
11121;SDS011;5615;49.304;10.576;2022-09-09T07:25:54;3.20;;;1.60;;
11121;SDS011;5615;49.304;10.576;2022-09-09T07:28:21;3.72;;;1.60;;
11121;SDS011;5615;49.304;10.576;2022-09-09T07:30:55;3.37;;;1.73;;
11121;SDS011;5615;49.304;10.576;2022-09-09T07:33:23;3.33;;;1.50;;
11121;SDS011;5615;49.304;10.576;2022-09-09T07:35:51;2.60;;;1.60;;
11121;SDS011;5615;49.304;10.576;2022-09-09T07:38:19;3.30;;;1.40;;
11121;SDS011;5615;49.304;10.576;2022-09-09T07:40:46;4.55;;;1.70;;
11121;SDS011;5615;49.304;10.576;2022-09-09T07:43:13;3.03;;;1.50;;
11121;SDS011;5615;49.304;10.576;2022-09-09T07:45:43;6.15;;;1.83;;
11121;SDS011;5615;49.304;10.576;2022-09-09T07:48:10;3.22;;;1.45;;
11121;SDS011;5615;49.304;10.576;2022-09-09T07:50:37;4.55;;;1.30;;
11121;SDS011;5615;49.304;10.576;2022-09-09T07:53:05;2.17;;;1.20;;
11121;SDS011;5615;49.304;10.576;2022-09-09T07:55:32;2.03;;;1.25;;
11121;SDS011;5615;49.304;10.576;2022-09-09T07:57:59;3.00;;;1.30;;
11121;SDS011;5615;49.304;10.576;2022-09-09T08:00:25;4.00;;;1.50;;
11121;SDS011;5615;49.304;10.576;2022-09-09T08:02:52;6.45;;;1.65;;
11121;SDS011;5615;49.304;10.576;2022-09-09T08:05:19;2.50;;;1.33;;
11121;SDS011;5615;49.304;10.576;2022-09-09T08:07:47;3.25;;;1.35;;
11121;SDS011;5615;49.304;10.576;2022-09-09T08:10:15;3.88;;;1.40;;
11121;SDS011;5615;49.304;10.576;2022-09-09T08:12:43;4.38;;;1.65;;
11121;SDS011;5615;49.304;10.576;2022-09-09T08:15:10;4.47;;;1.00;;
11121;SDS011;5615;49.304;10.576;2022-09-09T08:17:37;3.22;;;1.30;;
11121;SDS011;5615;49.304;10.576;2022-09-09T08:20:04;6.10;;;1.85;;
11121;SDS011;5615;49.304;10.576;2022-09-09T08:22:31;4.95;;;1.50;;
11121;SDS011;5615;49.304;10.576;2022-09-09T08:24:59;2.28;;;1.40;;
11121;SDS011;5615;49.304;10.576;2022-09-09T08:27:28;4.45;;;1.50;;
11121;SDS011;5615;49.304;10.576;2022-09-09T08:29:55;3.33;;;1.40;;
11121;SDS011;5615;49.304;10.576;2022-09-09T08:32:21;2.67;;;1.30;;
11121;SDS011;5615;49.304;10.576;2022-09-09T08:34:48;2.67;;;1.55;;
11121;SDS011;5615;49.304;10.576;2022-09-09T08:37:16;3.78;;;1.23;;
11121;SDS011;5615;49.304;10.576;2022-09-09T08:39:42;3.08;;;1.20;;
11121;SDS011;5615;49.304;10.576;2022-09-09T08:45:04;3.20;;;1.30;;
11121;SDS011;5615;49.304;10.576;2022-09-09T08:47:42;3.60;;;1.63;;
11121;SDS011;5615;49.304;10.576;2022-09-09T08:50:21;1.95;;;1.13;;
11121;SDS011;5615;49.304;10.576;2022-09-09T08:52:53;4.68;;;1.45;;
11121;SDS011;5615;49.304;10.576;2022-09-09T08:55:28;4.82;;;1.27;;
11121;SDS011;5615;49.304;10.576;2022-09-09T08:58:13;3.78;;;1.45;;
11121;SDS011;5615;49.304;10.576;2022-09-09T09:00:44;2.78;;;1.42;;
11121;SDS011;5615;49.304;10.576;2022-09-09T09:03:28;2.53;;;1.25;;
11121;SDS011;5615;49.304;10.576;2022-09-09T09:06:04;2.58;;;1.35;;
11121;SDS011;5615;49.304;10.576;2022-09-09T09:08:39;2.42;;;1.50;;
11121;SDS011;5615;49.304;10.576;2022-09-09T09:11:10;3.75;;;1.50;;
11121;SDS011;5615;49.304;10.576;2022-09-09T09:13:39;1.92;;;1.20;;
11121;SDS011;5615;49.304;10.576;2022-09-09T09:16:13;3.40;;;1.67;;
11121;SDS011;5615;49.304;10.576;2022-09-09T09:18:45;2.78;;;1.30;;
11121;SDS011;5615;49.304;10.576;2022-09-09T09:21:12;3.45;;;1.30;;
11121;SDS011;5615;49.304;10.576;2022-09-09T09:23:45;4.85;;;1.65;;
11121;SDS011;5615;49.304;10.576;2022-09-09T09:26:17;2.90;;;1.38;;
11121;SDS011;5615;49.304;10.576;2022-09-09T09:28:46;5.82;;;1.50;;
11121;SDS011;5615;49.304;10.576;2022-09-09T09:31:13;2.72;;;1.25;;
11121;SDS011;5615;49.304;10.576;2022-09-09T09:33:43;2.78;;;1.50;;
11121;SDS011;5615;49.304;10.576;2022-09-09T09:36:13;4.47;;;1.40;;
11121;SDS011;5615;49.304;10.576;2022-09-09T09:38:51;3.22;;;1.52;;
11121;SDS011;5615;49.304;10.576;2022-09-09T09:41:28;3.33;;;1.42;;
11121;SDS011;5615;49.304;10.576;2022-09-09T09:43:56;4.57;;;1.50;;
11121;SDS011;5615;49.304;10.576;2022-09-09T09:46:24;3.35;;;1.23;;
11121;SDS011;5615;49.304;10.576;2022-09-09T09:48:58;7.28;;;1.30;;
11121;SDS011;5615;49.304;10.576;2022-09-09T09:51:26;4.03;;;1.65;;
11121;SDS011;5615;49.304;10.576;2022-09-09T09:53:54;3.17;;;1.15;;
11121;SDS011;5615;49.304;10.576;2022-09-09T09:56:35;5.35;;;1.48;;
11121;SDS011;5615;49.304;10.576;2022-09-09T09:59:03;3.63;;;1.30;;
11121;SDS011;5615;49.304;10.576;2022-09-09T10:01:31;4.88;;;1.80;;
11121;SDS011;5615;49.304;10.576;2022-09-09T10:03:59;7.70;;;1.40;;
11121;SDS011;5615;49.304;10.576;2022-09-09T10:06:31;2.53;;;1.38;;
11121;SDS011;5615;49.304;10.576;2022-09-09T10:08:59;2.58;;;1.40;;
11121;SDS011;5615;49.304;10.576;2022-09-09T10:11:30;4.45;;;1.48;;
11121;SDS011;5615;49.304;10.576;2022-09-09T10:14:11;3.88;;;1.80;;
11121;SDS011;5615;49.304;10.576;2022-09-09T10:16:49;4.20;;;1.75;;
11121;SDS011;5615;49.304;10.576;2022-09-09T10:19:28;3.15;;;1.80;;
11121;SDS011;5615;49.304;10.576;2022-09-09T10:22:00;4.15;;;1.60;;
11121;SDS011;5615;49.304;10.576;2022-09-09T10:24:48;6.15;;;1.80;;
11121;SDS011;5615;49.304;10.576;2022-09-09T10:27:28;5.93;;;1.60;;
11121;SDS011;5615;49.304;10.576;2022-09-09T10:30:06;3.08;;;1.50;;
11121;SDS011;5615;49.304;10.576;2022-09-09T10:32:45;2.60;;;1.42;;
11121;SDS011;5615;49.304;10.576;2022-09-09T10:35:19;3.20;;;1.70;;
11121;SDS011;5615;49.304;10.576;2022-09-09T10:37:57;5.32;;;1.60;;
11121;SDS011;5615;49.304;10.576;2022-09-09T10:40:37;2.80;;;1.75;;
11121;SDS011;5615;49.304;10.576;2022-09-09T10:43:12;6.18;;;2.00;;
11121;SDS011;5615;49.304;10.576;2022-09-09T10:45:54;4.50;;;1.73;;
11121;SDS011;5615;49.304;10.576;2022-09-09T10:48:31;2.90;;;1.30;;
11121;SDS011;5615;49.304;10.576;2022-09-09T10:51:14;2.22;;;1.40;;
11121;SDS011;5615;49.304;10.576;2022-09-09T10:53:53;4.60;;;1.75;;
11121;SDS011;5615;49.304;10.576;2022-09-09T10:56:36;3.22;;;1.70;;
11121;SDS011;5615;49.304;10.576;2022-09-09T10:59:06;4.40;;;1.90;;
11121;SDS011;5615;49.304;10.576;2022-09-09T11:01:40;10.68;;;2.25;;
11121;SDS011;5615;49.304;10.576;2022-09-09T11:04:10;2.97;;;1.40;;
11121;SDS011;5615;49.304;10.576;2022-09-09T11:06:44;2.97;;;1.40;;
11121;SDS011;5615;49.304;10.576;2022-09-09T11:09:18;3.05;;;1.60;;
11121;SDS011;5615;49.304;10.576;2022-09-09T11:11:49;2.25;;;1.23;;
11121;SDS011;5615;49.304;10.576;2022-09-09T11:14:19;3.40;;;1.48;;
11121;SDS011;5615;49.304;10.576;2022-09-09T11:16:56;2.85;;;1.25;;
11121;SDS011;5615;49.304;10.576;2022-09-09T11:19:26;4.82;;;1.70;;
11121;SDS011;5615;49.304;10.576;2022-09-09T11:21:57;3.38;;;1.45;;
11121;SDS011;5615;49.304;10.576;2022-09-09T11:24:27;4.43;;;1.35;;
11121;SDS011;5615;49.304;10.576;2022-09-09T11:26:58;2.78;;;1.60;;
11121;SDS011;5615;49.304;10.576;2022-09-09T11:29:37;2.55;;;1.45;;
11121;SDS011;5615;49.304;10.576;2022-09-09T11:32:28;2.75;;;1.20;;
11121;SDS011;5615;49.304;10.576;2022-09-09T11:35:16;3.38;;;1.95;;
11121;SDS011;5615;49.304;10.576;2022-09-09T11:38:02;3.70;;;1.50;;
11121;SDS011;5615;49.304;10.576;2022-09-09T11:40:39;3.78;;;1.48;;
11121;SDS011;5615;49.304;10.576;2022-09-09T11:43:08;2.13;;;1.23;;
11121;SDS011;5615;49.304;10.576;2022-09-09T11:45:39;4.63;;;1.30;;
11121;SDS011;5615;49.304;10.576;2022-09-09T11:48:22;2.70;;;1.50;;
11121;SDS011;5615;49.304;10.576;2022-09-09T11:50:56;3.28;;;1.48;;
11121;SDS011;5615;49.304;10.576;2022-09-09T11:53:25;3.22;;;1.58;;
11121;SDS011;5615;49.304;10.576;2022-09-09T11:56:09;2.25;;;1.30;;
11121;SDS011;5615;49.304;10.576;2022-09-09T11:58:41;3.22;;;1.48;;
11121;SDS011;5615;49.304;10.576;2022-09-09T12:01:13;3.72;;;2.05;;
11121;SDS011;5615;49.304;10.576;2022-09-09T12:03:43;4.40;;;1.55;;
11121;SDS011;5615;49.304;10.576;2022-09-09T12:06:13;3.28;;;1.42;;
11121;SDS011;5615;49.304;10.576;2022-09-09T12:08:47;3.83;;;1.40;;
11121;SDS011;5615;49.304;10.576;2022-09-09T12:11:23;6.82;;;2.95;;
11121;SDS011;5615;49.304;10.576;2022-09-09T12:13:52;6.50;;;2.33;;
11121;SDS011;5615;49.304;10.576;2022-09-09T12:16:28;11.43;;;2.10;;
11121;SDS011;5615;49.304;10.576;2022-09-09T12:19:04;8.53;;;2.23;;
11121;SDS011;5615;49.304;10.576;2022-09-09T12:21:34;5.00;;;2.40;;
11121;SDS011;5615;49.304;10.576;2022-09-09T12:24:06;8.43;;;2.33;;
11121;SDS011;5615;49.304;10.576;2022-09-09T12:26:36;7.83;;;3.13;;
11121;SDS011;5615;49.304;10.576;2022-09-09T12:29:11;9.73;;;3.80;;
11121;SDS011;5615;49.304;10.576;2022-09-09T12:31:46;8.02;;;3.22;;
11121;SDS011;5615;49.304;10.576;2022-09-09T12:34:24;5.05;;;2.60;;
11121;SDS011;5615;49.304;10.576;2022-09-09T12:36:58;5.15;;;1.60;;
11121;SDS011;5615;49.304;10.576;2022-09-09T12:39:32;2.70;;;1.48;;
11121;SDS011;5615;49.304;10.576;2022-09-09T12:42:01;3.13;;;1.40;;
11121;SDS011;5615;49.304;10.576;2022-09-09T12:44:29;2.50;;;1.15;;
11121;SDS011;5615;49.304;10.576;2022-09-09T12:46:58;2.67;;;1.23;;
11121;SDS011;5615;49.304;10.576;2022-09-09T12:49:31;2.25;;;1.08;;
11121;SDS011;5615;49.304;10.576;2022-09-09T12:52:02;2.97;;;1.25;;
11121;SDS011;5615;49.304;10.576;2022-09-09T12:54:30;2.35;;;1.17;;
11121;SDS011;5615;49.304;10.576;2022-09-09T12:56:58;2.45;;;1.20;;
11121;SDS011;5615;49.304;10.576;2022-09-09T12:59:25;6.05;;;1.40;;
11121;SDS011;5615;49.304;10.576;2022-09-09T13:02:00;2.00;;;0.98;;
11121;SDS011;5615;49.304;10.576;2022-09-09T13:04:27;3.65;;;1.40;;
11121;SDS011;5615;49.304;10.576;2022-09-09T13:06:55;3.00;;;1.42;;
11121;SDS011;5615;49.304;10.576;2022-09-09T13:09:31;2.25;;;1.30;;
11121;SDS011;5615;49.304;10.576;2022-09-09T13:11:58;2.40;;;1.20;;
11121;SDS011;5615;49.304;10.576;2022-09-09T13:14:26;2.58;;;1.35;;
11121;SDS011;5615;49.304;10.576;2022-09-09T13:16:57;4.07;;;1.55;;
11121;SDS011;5615;49.304;10.576;2022-09-09T13:19:25;3.00;;;1.23;;
11121;SDS011;5615;49.304;10.576;2022-09-09T13:21:58;3.25;;;1.35;;
11121;SDS011;5615;49.304;10.576;2022-09-09T13:24:26;4.95;;;1.88;;
11121;SDS011;5615;49.304;10.576;2022-09-09T13:26:56;3.40;;;1.48;;
11121;SDS011;5615;49.304;10.576;2022-09-09T13:29:23;5.00;;;1.70;;
11121;SDS011;5615;49.304;10.576;2022-09-09T13:31:50;3.83;;;1.42;;
11121;SDS011;5615;49.304;10.576;2022-09-09T13:34:26;4.65;;;1.70;;
11121;SDS011;5615;49.304;10.576;2022-09-09T13:36:54;4.40;;;1.55;;
11121;SDS011;5615;49.304;10.576;2022-09-09T13:39:26;2.78;;;1.40;;
11121;SDS011;5615;49.304;10.576;2022-09-09T13:41:53;3.30;;;1.63;;
11121;SDS011;5615;49.304;10.576;2022-09-09T13:44:20;3.60;;;1.60;;
11121;SDS011;5615;49.304;10.576;2022-09-09T13:46:59;3.65;;;1.35;;
11121;SDS011;5615;49.304;10.576;2022-09-09T13:49:28;6.72;;;1.27;;
11121;SDS011;5615;49.304;10.576;2022-09-09T13:52:09;3.53;;;1.40;;
11121;SDS011;5615;49.304;10.576;2022-09-09T13:54:38;4.82;;;1.75;;
11121;SDS011;5615;49.304;10.576;2022-09-09T13:57:05;5.35;;;1.60;;
11121;SDS011;5615;49.304;10.576;2022-09-09T13:59:32;3.60;;;1.70;;
11121;SDS011;5615;49.304;10.576;2022-09-09T14:01:59;3.70;;;1.58;;
11121;SDS011;5615;49.304;10.576;2022-09-09T14:04:26;4.60;;;1.40;;
11121;SDS011;5615;49.304;10.576;2022-09-09T14:06:53;2.50;;;1.48;;
11121;SDS011;5615;49.304;10.576;2022-09-09T14:09:22;3.45;;;1.23;;
11121;SDS011;5615;49.304;10.576;2022-09-09T14:11:49;1.88;;;1.08;;
11121;SDS011;5615;49.304;10.576;2022-09-09T14:14:16;1.80;;;1.08;;
11121;SDS011;5615;49.304;10.576;2022-09-09T14:16:42;2.00;;;1.13;;
11121;SDS011;5615;49.304;10.576;2022-09-09T14:19:09;1.77;;;1.00;;
11121;SDS011;5615;49.304;10.576;2022-09-09T14:21:36;1.37;;;1.00;;
11121;SDS011;5615;49.304;10.576;2022-09-09T14:24:02;2.00;;;1.00;;
11121;SDS011;5615;49.304;10.576;2022-09-09T14:26:31;1.47;;;0.90;;
11121;SDS011;5615;49.304;10.576;2022-09-09T14:28:57;1.93;;;0.97;;
11121;SDS011;5615;49.304;10.576;2022-09-09T14:31:25;4.03;;;1.10;;
11121;SDS011;5615;49.304;10.576;2022-09-09T14:33:52;2.53;;;1.10;;
11121;SDS011;5615;49.304;10.576;2022-09-09T14:36:19;3.80;;;1.30;;
11121;SDS011;5615;49.304;10.576;2022-09-09T14:38:45;1.50;;;0.70;;
11121;SDS011;5615;49.304;10.576;2022-09-09T14:41:13;3.88;;;0.90;;
11121;SDS011;5615;49.304;10.576;2022-09-09T14:43:44;1.85;;;0.90;;
11121;SDS011;5615;49.304;10.576;2022-09-09T14:46:12;1.92;;;0.80;;
11121;SDS011;5615;49.304;10.576;2022-09-09T14:48:40;0.88;;;0.88;;
11121;SDS011;5615;49.304;10.576;2022-09-09T14:51:08;0.90;;;0.73;;
11121;SDS011;5615;49.304;10.576;2022-09-09T14:53:37;1.52;;;0.80;;
11121;SDS011;5615;49.304;10.576;2022-09-09T14:56:05;2.45;;;0.90;;
11121;SDS011;5615;49.304;10.576;2022-09-09T14:58:33;1.52;;;0.90;;
11121;SDS011;5615;49.304;10.576;2022-09-09T15:01:05;1.60;;;0.93;;
11121;SDS011;5615;49.304;10.576;2022-09-09T15:03:34;1.45;;;1.00;;
11121;SDS011;5615;49.304;10.576;2022-09-09T15:06:05;2.25;;;0.98;;
11121;SDS011;5615;49.304;10.576;2022-09-09T15:08:33;2.17;;;1.10;;
11121;SDS011;5615;49.304;10.576;2022-09-09T15:11:00;1.83;;;0.80;;